Time;durP1;ratioP1;P1;durP2;ratioP2;P2;SDS_P1;SDS_P2;PMS_P1;PMS_P2;Temp;Humidity;BMP_temperature;BMP_pressure;BME280_temperature;BME280_humidity;BME280_pressure;Samples;Min_cycle;Max_cycle;Signal;HPM_P1;HPM_P2
2023/06/20 00:01:58;;;;;;;;;;;23.00;61.70;;;;;;5021578;28;19913;-82
2023/06/20 00:04:24;;;;;;;;;;;23.00;61.60;;;;;;5036892;28;19913;-81
2023/06/20 00:06:49;;;;;;;;;;;22.90;61.90;;;;;;5030562;28;19984;-81
2023/06/20 00:09:15;;;;;;;;;;;23.00;61.80;;;;;;5049176;28;19963;-80
2023/06/20 00:11:40;;;;;;;;;;;23.00;61.80;;;;;;5027524;28;19918;-81
2023/06/20 00:14:06;;;;;;;;;;;22.90;61.70;;;;;;5024715;28;19998;-81
2023/06/20 00:16:31;;;;;;;;;;;22.80;62.40;;;;;;5033665;28;20296;-82
2023/06/20 00:18:57;;;;;;;;;;;22.90;62.30;;;;;;5035511;28;20269;-81
2023/06/20 00:21:25;;;;;;;;;;;22.80;62.40;;;;;;5022811;28;19959;-82
2023/06/20 00:23:54;;;;;;;;;;;22.70;62.60;;;;;;5031743;28;20616;-81
2023/06/20 00:26:20;;;;;;;;;;;22.60;62.80;;;;;;5034005;28;19913;-82
2023/06/20 00:28:46;;;;;;;;;;;22.80;62.40;;;;;;5042365;28;20361;-82
2023/06/20 00:31:11;;;;;;;;;;;22.60;62.70;;;;;;5029138;28;20004;-81
2023/06/20 00:33:37;;;;;;;;;;;22.70;62.70;;;;;;5038294;28;19913;-82
2023/06/20 00:36:03;;;;;;;;;;;22.80;62.30;;;;;;5021182;28;19916;-82
2023/06/20 00:38:29;;;;;;;;;;;22.70;62.70;;;;;;5037003;28;20448;-81
2023/06/20 00:40:55;;;;;;;;;;;22.70;62.60;;;;;;5031281;28;19913;-82
2023/06/20 00:43:20;;;;;;;;;;;22.70;62.60;;;;;;5031042;28;19975;-82
2023/06/20 00:45:46;;;;;;;;;;;22.60;63.00;;;;;;5032704;28;19913;-81
2023/06/20 00:48:12;;;;;;;;;;;22.60;63.20;;;;;;5025185;28;20431;-81
2023/06/20 00:50:37;;;;;;;;;;;22.60;63.10;;;;;;5014075;28;20008;-81
2023/06/20 00:53:06;;;;;;;;;;;22.50;63.10;;;;;;5030527;28;19944;-82
2023/06/20 00:55:33;;;;;;;;;;;22.60;62.80;;;;;;5035493;28;20527;-81
2023/06/20 00:58:00;;;;;;;;;;;22.60;62.90;;;;;;5018238;28;19929;-81
2023/06/20 01:00:27;;;;;;;;;;;22.60;63.00;;;;;;5036442;28;19913;-81
2023/06/20 01:02:54;;;;;;;;;;;22.60;62.60;;;;;;5023128;28;19913;-82
2023/06/20 01:05:26;;;;;;;;;;;22.60;62.80;;;;;;5027068;28;19914;-81
2023/06/20 01:07:58;;;;;;;;;;;22.50;63.40;;;;;;5038399;28;19917;-81
2023/06/20 01:10:27;;;;;;;;;;;22.50;63.30;;;;;;5036338;28;19913;-81
2023/06/20 01:12:56;;;;;;;;;;;22.40;63.80;;;;;;5029794;28;19971;-80
2023/06/20 01:15:29;;;;;;;;;;;22.30;64.40;;;;;;5037623;28;20339;-81
2023/06/20 01:18:13;;;;;;;;;;;22.20;64.50;;;;;;5028735;28;19976;-80
2023/06/20 01:20:43;;;;;;;;;;;22.20;64.50;;;;;;5034147;28;19917;-82
2023/06/20 01:23:24;;;;;;;;;;;22.30;64.50;;;;;;5036148;28;19924;-79
2023/06/20 01:25:59;;;;;;;;;;;22.40;64.00;;;;;;5016506;28;19949;-81
2023/06/20 01:28:43;;;;;;;;;;;22.50;63.90;;;;;;5031914;28;19913;-80
2023/06/20 01:31:11;;;;;;;;;;;22.30;64.40;;;;;;5033877;28;19917;-80
2023/06/20 01:33:51;;;;;;;;;;;22.40;64.00;;;;;;5013849;28;19967;-80
2023/06/20 01:36:18;;;;;;;;;;;22.30;64.40;;;;;;5033617;28;19979;-82
2023/06/20 01:38:44;;;;;;;;;;;22.30;64.60;;;;;;5015059;28;19965;-81
2023/06/20 01:41:12;;;;;;;;;;;22.20;65.20;;;;;;5030898;28;19921;-81
2023/06/20 01:43:38;;;;;;;;;;;22.10;65.50;;;;;;5045540;28;19912;-81
2023/06/20 01:46:05;;;;;;;;;;;22.10;65.90;;;;;;5051800;28;19917;-81
2023/06/20 01:48:32;;;;;;;;;;;22.30;64.70;;;;;;5033496;28;19909;-82
2023/06/20 01:50:58;;;;;;;;;;;22.40;64.40;;;;;;5026362;28;19909;-82
2023/06/20 01:53:24;;;;;;;;;;;22.40;64.30;;;;;;5023658;28;19954;-82
2023/06/20 01:55:50;;;;;;;;;;;22.20;65.00;;;;;;5048908;28;19920;-82
2023/06/20 01:58:16;;;;;;;;;;;22.30;64.40;;;;;;5053215;28;19925;-82
2023/06/20 02:00:45;;;;;;;;;;;22.20;65.10;;;;;;5030941;28;19914;-82
2023/06/20 02:03:12;;;;;;;;;;;22.10;65.50;;;;;;5017568;28;20039;-82
2023/06/20 02:05:38;;;;;;;;;;;22.10;65.60;;;;;;5017438;28;19920;-81
2023/06/20 02:08:04;;;;;;;;;;;22.20;65.70;;;;;;5041160;28;19924;-81
2023/06/20 02:10:31;;;;;;;;;;;22.10;65.70;;;;;;5018643;28;19913;-81
2023/06/20 02:12:57;;;;;;;;;;;22.10;66.10;;;;;;5032353;28;19920;-80
2023/06/20 02:15:24;;;;;;;;;;;22.10;66.20;;;;;;5037601;28;19924;-80
2023/06/20 02:17:49;;;;;;;;;;;22.10;66.30;;;;;;5031369;28;19932;-80
2023/06/20 02:20:15;;;;;;;;;;;22.10;66.60;;;;;;5046224;28;19920;-80
2023/06/20 02:22:44;;;;;;;;;;;22.10;66.70;;;;;;5012939;28;19988;-80
2023/06/20 02:25:12;;;;;;;;;;;22.00;67.30;;;;;;5026260;28;20400;-80
2023/06/20 02:27:39;;;;;;;;;;;22.00;67.90;;;;;;5029913;28;19917;-80
2023/06/20 02:30:06;;;;;;;;;;;21.90;68.50;;;;;;5032962;28;19908;-80
2023/06/20 02:32:32;;;;;;;;;;;21.90;68.60;;;;;;5034214;28;19913;-79
2023/06/20 02:34:58;;;;;;;;;;;21.90;68.30;;;;;;5017912;28;19916;-80
2023/06/20 02:37:25;;;;;;;;;;;22.00;67.60;;;;;;5016701;28;20296;-79
2023/06/20 02:39:50;;;;;;;;;;;21.90;67.70;;;;;;5016088;28;19921;-79
2023/06/20 02:42:16;;;;;;;;;;;21.90;68.10;;;;;;5030067;28;20441;-79
2023/06/20 02:44:42;;;;;;;;;;;21.90;67.90;;;;;;5031261;28;19909;-80
2023/06/20 02:47:33;;;;;;;;;;;21.90;68.10;;;;;;5018865;28;19975;-80
2023/06/20 02:50:04;;;;;;;;;;;21.90;68.10;;;;;;5015899;28;19913;-80
2023/06/20 02:52:37;;;;;;;;;;;21.80;68.20;;;;;;5010450;28;19924;-81
2023/06/20 02:55:03;;;;;;;;;;;21.80;68.70;;;;;;5023677;28;19916;-81
2023/06/20 02:57:30;;;;;;;;;;;21.80;68.70;;;;;;5018241;28;19921;-82
2023/06/20 03:00:05;;;;;;;;;;;21.80;68.80;;;;;;5030888;28;21231;-82
2023/06/20 03:02:31;;;;;;;;;;;21.80;69.20;;;;;;5023265;28;19959;-80
2023/06/20 03:05:00;;;;;;;;;;;21.80;69.30;;;;;;5026478;28;19913;-81
2023/06/20 03:07:26;;;;;;;;;;;21.80;69.70;;;;;;5019467;28;20475;-81
2023/06/20 03:09:54;;;;;;;;;;;21.80;70.20;;;;;;5018245;28;19913;-81
2023/06/20 03:12:20;;;;;;;;;;;21.80;70.00;;;;;;5016869;28;20333;-81
2023/06/20 03:14:45;;;;;;;;;;;21.70;70.10;;;;;;5032812;28;20377;-81
2023/06/20 03:17:11;;;;;;;;;;;21.70;70.30;;;;;;5037864;28;19924;-82
2023/06/20 03:19:36;;;;;;;;;;;21.70;70.30;;;;;;5031740;28;19949;-81
2023/06/20 03:22:01;;;;;;;;;;;21.80;70.40;;;;;;5026516;28;19914;-81
2023/06/20 03:24:27;;;;;;;;;;;21.70;70.60;;;;;;5034191;28;19999;-79
2023/06/20 03:26:52;;;;;;;;;;;21.70;71.40;;;;;;5025735;28;19913;-82
2023/06/20 03:29:18;;;;;;;;;;;21.70;71.80;;;;;;5021248;28;20337;-82
2023/06/20 03:31:43;;;;;;;;;;;21.60;72.50;;;;;;5038879;28;20008;-79
2023/06/20 03:34:09;;;;;;;;;;;21.60;72.90;;;;;;5035103;28;19913;-81
2023/06/20 03:36:34;;;;;;;;;;;21.60;73.00;;;;;;5034470;28;20357;-80
2023/06/20 03:39:00;;;;;;;;;;;21.60;73.40;;;;;;5035575;28;19921;-79
2023/06/20 03:41:25;;;;;;;;;;;21.60;74.20;;;;;;5024548;28;19996;-81
2023/06/20 03:43:50;;;;;;;;;;;21.50;74.30;;;;;;5043067;28;19917;-81
2023/06/20 03:46:16;;;;;;;;;;;21.50;74.70;;;;;;5047227;28;19936;-80
2023/06/20 03:48:41;;;;;;;;;;;21.50;75.30;;;;;;5035808;28;19913;-82
2023/06/20 03:51:07;;;;;;;;;;;21.50;75.50;;;;;;5038824;28;20288;-82
2023/06/20 03:53:32;;;;;;;;;;;21.50;75.30;;;;;;5020311;28;19957;-81
2023/06/20 03:55:58;;;;;;;;;;;21.60;75.40;;;;;;5019592;28;20439;-82
2023/06/20 03:58:23;;;;;;;;;;;21.50;75.90;;;;;;5036026;28;19921;-81
2023/06/20 04:00:49;;;;;;;;;;;21.50;75.20;;;;;;5035005;28;20384;-82
2023/06/20 04:03:14;;;;;;;;;;;21.50;75.40;;;;;;5015278;28;19921;-80
2023/06/20 04:05:40;;;;;;;;;;;21.40;75.50;;;;;;5028077;28;19917;-82
2023/06/20 04:08:06;;;;;;;;;;;21.50;75.60;;;;;;5027576;28;19936;-82
2023/06/20 04:10:31;;;;;;;;;;;21.50;75.90;;;;;;5045667;28;19951;-80
2023/06/20 04:12:57;;;;;;;;;;;21.50;75.90;;;;;;5027328;28;20281;-83
2023/06/20 04:15:22;;;;;;;;;;;21.50;76.30;;;;;;5023612;28;19917;-84
2023/06/20 04:17:48;;;;;;;;;;;21.50;76.50;;;;;;5032510;28;20016;-84
2023/06/20 04:20:13;;;;;;;;;;;21.40;76.50;;;;;;5027143;28;20092;-84
2023/06/20 04:22:42;;;;;;;;;;;21.40;76.60;;;;;;5023304;28;19924;-81
2023/06/20 04:25:08;;;;;;;;;;;21.40;76.70;;;;;;5037451;28;19920;-82
2023/06/20 04:27:33;;;;;;;;;;;21.40;76.30;;;;;;5025755;28;19948;-80
2023/06/20 04:29:59;;;;;;;;;;;21.30;77.00;;;;;;5030358;28;20340;-79
2023/06/20 04:32:24;;;;;;;;;;;21.40;76.50;;;;;;5025691;28;19952;-80
2023/06/20 04:34:52;;;;;;;;;;;21.40;76.60;;;;;;5016256;28;19913;-80
2023/06/20 04:37:20;;;;;;;;;;;21.40;76.90;;;;;;5037203;28;19917;-79
2023/06/20 04:39:46;;;;;;;;;;;21.60;76.60;;;;;;5037841;28;19935;-79
2023/06/20 04:42:11;;;;;;;;;;;21.60;76.50;;;;;;5038210;28;19988;-81
2023/06/20 04:44:37;;;;;;;;;;;21.60;76.30;;;;;;5040172;28;19913;-79
2023/06/20 04:47:02;;;;;;;;;;;21.70;76.20;;;;;;5017441;28;20318;-81
2023/06/20 04:49:28;;;;;;;;;;;21.80;76.00;;;;;;5014961;28;19983;-81
2023/06/20 04:51:54;;;;;;;;;;;21.80;76.30;;;;;;5025743;28;19979;-81
2023/06/20 04:54:19;;;;;;;;;;;21.80;76.10;;;;;;5019551;28;19913;-82
2023/06/20 04:56:45;;;;;;;;;;;21.80;76.60;;;;;;5042689;28;19913;-81
2023/06/20 04:59:11;;;;;;;;;;;21.80;76.80;;;;;;5042634;28;19988;-80
2023/06/20 05:01:37;;;;;;;;;;;21.80;76.50;;;;;;5039504;28;19952;-80
2023/06/20 05:04:03;;;;;;;;;;;21.80;76.10;;;;;;5035658;28;19945;-79
2023/06/20 05:06:29;;;;;;;;;;;21.80;75.90;;;;;;5040565;28;19958;-80
2023/06/20 05:08:54;;;;;;;;;;;21.80;76.20;;;;;;5024391;28;20292;-80
2023/06/20 05:11:20;;;;;;;;;;;21.80;76.20;;;;;;5021890;28;19956;-81
2023/06/20 05:13:45;;;;;;;;;;;21.70;75.60;;;;;;5047275;28;19962;-81
2023/06/20 05:16:11;;;;;;;;;;;21.60;75.90;;;;;;5017365;28;19917;-81
2023/06/20 05:18:36;;;;;;;;;;;21.60;76.10;;;;;;5031793;28;19921;-80
2023/06/20 05:21:02;;;;;;;;;;;21.60;76.40;;;;;;5014028;28;19917;-80
2023/06/20 05:23:27;;;;;;;;;;;21.70;76.50;;;;;;5030092;28;19924;-81
2023/06/20 05:25:53;;;;;;;;;;;21.70;76.30;;;;;;5026395;28;19913;-81
2023/06/20 05:28:19;;;;;;;;;;;21.70;76.20;;;;;;5029018;28;20368;-81
2023/06/20 05:30:44;;;;;;;;;;;21.80;76.60;;;;;;5032125;28;19913;-81
2023/06/20 05:33:09;;;;;;;;;;;21.80;76.60;;;;;;5029136;28;19918;-81
2023/06/20 05:35:35;;;;;;;;;;;21.90;76.40;;;;;;5009208;28;19913;-81
2023/06/20 05:38:01;;;;;;;;;;;21.80;76.20;;;;;;5020676;28;19916;-81
2023/06/20 05:40:26;;;;;;;;;;;21.90;76.40;;;;;;5019950;28;20070;-81
2023/06/20 05:42:52;;;;;;;;;;;22.00;76.20;;;;;;5015137;28;19913;-81
2023/06/20 05:45:17;;;;;;;;;;;22.10;76.10;;;;;;5017917;28;20025;-81
2023/06/20 05:47:44;;;;;;;;;;;22.20;75.50;;;;;;5025542;28;19913;-81
2023/06/20 05:50:09;;;;;;;;;;;22.20;75.70;;;;;;5017529;28;19972;-81
2023/06/20 05:52:35;;;;;;;;;;;22.20;75.40;;;;;;5016396;28;19916;-81
2023/06/20 05:55:01;;;;;;;;;;;22.30;75.40;;;;;;5012887;28;19960;-81
2023/06/20 05:57:27;;;;;;;;;;;22.20;75.30;;;;;;5033243;28;19917;-81
2023/06/20 05:59:52;;;;;;;;;;;22.30;75.80;;;;;;5028968;28;20432;-81
2023/06/20 06:02:20;;;;;;;;;;;22.30;76.00;;;;;;5026891;28;19957;-80
2023/06/20 06:04:47;;;;;;;;;;;22.20;76.30;;;;;;5013289;28;19942;-80
2023/06/20 06:07:12;;;;;;;;;;;22.30;75.90;;;;;;5032054;28;19928;-80
2023/06/20 06:09:38;;;;;;;;;;;22.20;76.40;;;;;;5024918;28;19976;-80
2023/06/20 06:12:03;;;;;;;;;;;22.20;76.80;;;;;;5021529;28;19998;-80
2023/06/20 06:14:29;;;;;;;;;;;22.20;77.00;;;;;;5014531;28;20357;-80
2023/06/20 06:16:55;;;;;;;;;;;22.30;76.40;;;;;;5034535;28;21652;-81
2023/06/20 06:19:20;;;;;;;;;;;22.30;76.00;;;;;;5016816;28;19913;-80
2023/06/20 06:21:47;;;;;;;;;;;22.40;75.70;;;;;;5032961;28;19971;-80
2023/06/20 06:24:13;;;;;;;;;;;22.60;75.60;;;;;;5030597;28;20352;-80
2023/06/20 06:26:38;;;;;;;;;;;22.70;75.40;;;;;;5043919;28;19944;-80
2023/06/20 06:29:07;;;;;;;;;;;22.60;74.60;;;;;;5037777;28;19935;-80
2023/06/20 06:31:33;;;;;;;;;;;22.60;74.30;;;;;;5036433;28;19928;-79
2023/06/20 06:34:00;;;;;;;;;;;22.60;74.50;;;;;;5042422;28;20466;-80
2023/06/20 06:36:26;;;;;;;;;;;22.80;73.70;;;;;;5025353;28;19913;-80
2023/06/20 06:38:51;;;;;;;;;;;22.80;73.70;;;;;;5026767;28;19979;-79
2023/06/20 06:41:17;;;;;;;;;;;22.80;74.00;;;;;;5055689;28;19916;-79
2023/06/20 06:43:43;;;;;;;;;;;23.00;73.00;;;;;;5032881;28;20380;-79
2023/06/20 06:46:08;;;;;;;;;;;23.10;71.90;;;;;;5024928;28;19943;-80
2023/06/20 06:48:34;;;;;;;;;;;23.10;70.80;;;;;;5025139;28;19952;-80
2023/06/20 06:51:00;;;;;;;;;;;23.30;70.80;;;;;;5034809;28;19913;-80
2023/06/20 06:53:25;;;;;;;;;;;23.30;70.40;;;;;;5019201;28;20001;-80
2023/06/20 06:55:51;;;;;;;;;;;23.20;71.10;;;;;;5029256;28;19964;-81
2023/06/20 06:58:16;;;;;;;;;;;23.20;71.30;;;;;;5035108;28;19921;-81
2023/06/20 07:00:42;;;;;;;;;;;23.10;71.10;;;;;;5017994;28;20176;-81
2023/06/20 07:03:08;;;;;;;;;;;23.00;71.20;;;;;;5049142;28;19925;-81
2023/06/20 07:05:34;;;;;;;;;;;23.00;71.30;;;;;;5043799;28;19984;-81
2023/06/20 07:07:59;;;;;;;;;;;23.00;71.60;;;;;;5039213;28;21370;-80
2023/06/20 07:10:25;;;;;;;;;;;22.90;71.70;;;;;;5016527;28;19928;-83
2023/06/20 07:12:50;;;;;;;;;;;22.80;72.20;;;;;;5041628;28;19913;-83
2023/06/20 07:15:16;;;;;;;;;;;22.90;72.50;;;;;;5038255;28;19932;-81
2023/06/20 07:17:42;;;;;;;;;;;22.90;73.20;;;;;;5020351;28;19919;-81
2023/06/20 07:20:09;;;;;;;;;;;22.90;72.70;;;;;;5026274;28;19917;-87
2023/06/20 07:22:35;;;;;;;;;;;22.80;73.20;;;;;;5035571;28;19967;-84
2023/06/20 07:25:00;;;;;;;;;;;22.80;72.60;;;;;;5022668;28;19921;-80
2023/06/20 07:27:26;;;;;;;;;;;22.80;71.90;;;;;;5013140;28;19960;-82
2023/06/20 07:29:51;;;;;;;;;;;22.90;70.90;;;;;;5018570;28;20012;-83
2023/06/20 07:32:18;;;;;;;;;;;23.00;70.70;;;;;;5023119;28;19945;-86
2023/06/20 07:34:44;;;;;;;;;;;23.10;70.00;;;;;;5018909;28;19913;-82
2023/06/20 07:37:09;;;;;;;;;;;23.40;69.20;;;;;;5037354;28;19996;-82
2023/06/20 07:39:38;;;;;;;;;;;23.50;69.10;;;;;;5023677;28;19925;-82
2023/06/20 07:42:03;;;;;;;;;;;23.50;67.80;;;;;;5022955;28;20103;-84
2023/06/20 07:44:29;;;;;;;;;;;23.50;67.20;;;;;;5042442;28;19952;-85
2023/06/20 07:46:54;;;;;;;;;;;23.60;67.80;;;;;;5027089;28;19913;-84
2023/06/20 07:49:20;;;;;;;;;;;23.60;67.10;;;;;;5030803;28;19924;-82
2023/06/20 07:51:46;;;;;;;;;;;23.60;66.50;;;;;;5040342;28;19927;-83
2023/06/20 07:54:14;;;;;;;;;;;23.70;67.00;;;;;;5038677;28;19917;-82
2023/06/20 07:56:39;;;;;;;;;;;23.70;65.60;;;;;;5042685;28;20097;-84
2023/06/20 07:59:05;;;;;;;;;;;23.80;65.70;;;;;;5022244;28;19917;-87
2023/06/20 08:01:31;;;;;;;;;;;24.00;66.30;;;;;;5019055;28;20020;-83
2023/06/20 08:03:56;;;;;;;;;;;24.00;65.80;;;;;;5028655;28;19913;-83
2023/06/20 08:06:22;;;;;;;;;;;24.00;66.50;;;;;;4998965;28;19975;-82
2023/06/20 08:08:47;;;;;;;;;;;24.00;66.10;;;;;;5028647;28;19987;-82
2023/06/20 08:11:13;;;;;;;;;;;24.10;65.90;;;;;;5031445;28;20309;-84
2023/06/20 08:13:38;;;;;;;;;;;24.20;66.10;;;;;;5014588;28;20004;-82
2023/06/20 08:16:04;;;;;;;;;;;24.30;64.70;;;;;;5014864;28;20312;-81
2023/06/20 08:18:29;;;;;;;;;;;24.30;65.00;;;;;;5033528;28;19913;-81
2023/06/20 08:20:55;;;;;;;;;;;24.30;65.20;;;;;;5014735;28;20308;-81
2023/06/20 08:23:26;;;;;;;;;;;24.30;65.50;;;;;;5029570;28;19958;-82
2023/06/20 08:25:55;;;;;;;;;;;24.50;67.10;;;;;;5029699;28;19996;-81
2023/06/20 08:28:21;;;;;;;;;;;24.60;65.80;;;;;;5012142;28;19920;-80
2023/06/20 08:30:47;;;;;;;;;;;24.50;65.40;;;;;;5030345;28;19913;-80
2023/06/20 08:33:12;;;;;;;;;;;24.60;64.90;;;;;;5014378;28;19932;-80
2023/06/20 08:35:38;;;;;;;;;;;24.60;64.70;;;;;;5011646;28;20320;-81
2023/06/20 08:38:04;;;;;;;;;;;24.60;65.30;;;;;;5031268;28;19921;-80
2023/06/20 08:40:30;;;;;;;;;;;24.70;65.30;;;;;;5010152;28;19913;-81
2023/06/20 08:42:56;;;;;;;;;;;24.90;63.60;;;;;;5014132;28;19913;-81
2023/06/20 08:45:22;;;;;;;;;;;24.90;64.70;;;;;;5030891;28;19947;-81
2023/06/20 08:47:47;;;;;;;;;;;25.00;64.80;;;;;;5015021;28;19955;-82
2023/06/20 08:50:13;;;;;;;;;;;25.00;64.10;;;;;;5005206;28;19913;-82
2023/06/20 08:52:45;;;;;;;;;;;25.10;64.10;;;;;;5031590;28;20262;-82
2023/06/20 08:55:11;;;;;;;;;;;25.10;64.90;;;;;;5014808;28;20384;-86
2023/06/20 08:57:36;;;;;;;;;;;25.30;63.40;;;;;;5013127;28;19966;-84
2023/06/20 09:00:04;;;;;;;;;;;25.30;62.50;;;;;;5014358;28;19960;-82
2023/06/20 09:02:30;;;;;;;;;;;25.20;63.40;;;;;;5012356;28;19916;-81
2023/06/20 09:05:05;;;;;;;;;;;25.20;62.00;;;;;;5030098;28;20328;-81
2023/06/20 09:07:35;;;;;;;;;;;25.30;62.00;;;;;;5010426;28;19921;-83
2023/06/20 09:10:01;;;;;;;;;;;25.40;61.40;;;;;;5031295;28;19917;-83
2023/06/20 09:12:27;;;;;;;;;;;25.50;63.40;;;;;;5012511;28;19913;-84
2023/06/20 09:14:52;;;;;;;;;;;25.70;62.20;;;;;;5033145;28;20353;-82
2023/06/20 09:17:19;;;;;;;;;;;25.70;62.40;;;;;;5010967;28;20392;-82
2023/06/20 09:19:46;;;;;;;;;;;25.80;60.60;;;;;;5012793;28;19917;-81
2023/06/20 09:22:14;;;;;;;;;;;25.80;60.10;;;;;;5014088;28;19949;-81
2023/06/20 09:24:40;;;;;;;;;;;25.80;61.00;;;;;;5008757;28;19929;-81
2023/06/20 09:27:06;;;;;;;;;;;25.80;59.70;;;;;;5013041;28;19996;-81
2023/06/20 09:29:31;;;;;;;;;;;25.90;59.50;;;;;;5029179;28;20027;-84
2023/06/20 09:31:57;;;;;;;;;;;26.00;59.80;;;;;;5029457;28;19913;-81
2023/06/20 09:34:22;;;;;;;;;;;26.10;58.60;;;;;;5030079;28;19929;-82
2023/06/20 09:36:48;;;;;;;;;;;26.40;58.00;;;;;;5012989;28;20364;-84
2023/06/20 09:39:20;;;;;;;;;;;26.30;57.50;;;;;;5012890;28;19980;-87
2023/06/20 09:41:52;;;;;;;;;;;26.40;58.40;;;;;;5044922;22;20111;-88
2023/06/20 09:44:19;;;;;;;;;;;26.60;59.30;;;;;;5054666;28;19958;-91
2023/06/20 09:46:45;;;;;;;;;;;26.70;58.40;;;;;;5066816;28;19947;-92
2023/06/20 09:49:15;;;;;;;;;;;26.80;57.80;;;;;;5049118;28;19913;-89
2023/06/20 09:51:47;;;;;;;;;;;26.80;57.70;;;;;;5060407;28;19913;-92
2023/06/20 09:54:15;;;;;;;;;;;26.80;57.20;;;;;;5056275;28;19974;-88
2023/06/20 09:56:47;;;;;;;;;;;26.80;56.30;;;;;;5055295;28;19912;-87
2023/06/20 09:59:14;;;;;;;;;;;26.70;56.60;;;;;;5057491;28;19927;-87
2023/06/20 10:01:40;;;;;;;;;;;26.80;57.80;;;;;;5069554;28;19912;-84
2023/06/20 10:04:05;;;;;;;;;;;26.80;56.60;;;;;;5058193;28;19924;-86
2023/06/20 10:06:31;;;;;;;;;;;26.90;56.20;;;;;;5054706;28;19916;-90
2023/06/20 10:08:58;;;;;;;;;;;27.00;56.70;;;;;;5055403;28;19959;-85
2023/06/20 10:11:23;;;;;;;;;;;27.00;55.70;;;;;;5055125;28;19917;-90
2023/06/20 10:13:49;;;;;;;;;;;27.00;56.30;;;;;;5053967;28;19966;-89
2023/06/20 10:16:14;;;;;;;;;;;27.10;55.40;;;;;;5060970;28;19912;-89
2023/06/20 10:18:40;;;;;;;;;;;27.00;56.20;;;;;;5062700;28;20027;-89
2023/06/20 10:21:06;;;;;;;;;;;27.10;55.70;;;;;;5061480;28;20354;-83
2023/06/20 10:23:33;;;;;;;;;;;27.30;54.40;;;;;;5072224;28;19917;-88
2023/06/20 10:26:00;;;;;;;;;;;27.40;54.60;;;;;;5055236;28;20335;-87
2023/06/20 10:28:26;;;;;;;;;;;27.50;54.40;;;;;;5071820;28;19999;-89
2023/06/20 10:31:03;;;;;;;;;;;27.70;53.70;;;;;;5058456;28;20354;-86
2023/06/20 10:33:28;;;;;;;;;;;27.80;53.90;;;;;;5071619;28;20350;-89
2023/06/20 10:35:55;;;;;;;;;;;27.80;54.20;;;;;;5059411;28;19932;-88
2023/06/20 10:38:20;;;;;;;;;;;28.10;53.70;;;;;;5056194;28;20297;-88
2023/06/20 10:40:47;;;;;;;;;;;28.20;52.00;;;;;;5056153;28;19913;-88
2023/06/20 10:43:15;;;;;;;;;;;28.30;51.70;;;;;;5072812;28;20398;-88
2023/06/20 10:45:51;;;;;;;;;;;28.10;51.60;;;;;;5061195;28;20378;-88
2023/06/20 10:48:16;;;;;;;;;;;28.10;50.80;;;;;;5058912;28;19966;-88
2023/06/20 10:50:42;;;;;;;;;;;28.10;51.90;;;;;;5058978;28;19909;-87
2023/06/20 10:53:08;;;;;;;;;;;28.30;53.70;;;;;;5056818;28;19913;-87
2023/06/20 10:55:36;;;;;;;;;;;28.40;53.80;;;;;;5053406;28;19923;-87
2023/06/20 10:58:02;;;;;;;;;;;28.50;52.10;;;;;;5064287;28;19908;-87
2023/06/20 11:00:27;;;;;;;;;;;28.70;51.50;;;;;;5058014;28;19962;-88
2023/06/20 11:02:54;;;;;;;;;;;28.60;52.10;;;;;;5054413;28;20370;-88
2023/06/20 11:05:23;;;;;;;;;;;28.60;51.50;;;;;;5057205;28;19985;-88
2023/06/20 11:07:55;;;;;;;;;;;28.50;51.00;;;;;;5080688;28;19921;-93
2023/06/20 11:10:27;;;;;;;;;;;28.40;52.50;;;;;;5065216;28;20289;-91
2023/06/20 11:12:53;;;;;;;;;;;28.40;52.90;;;;;;5077026;28;19901;-92
2023/06/20 11:15:25;;;;;;;;;;;28.50;52.80;;;;;;5079637;28;20008;-91
2023/06/20 11:17:51;;;;;;;;;;;28.50;52.20;;;;;;5079081;28;19968;-92
2023/06/20 11:20:17;;;;;;;;;;;28.40;52.10;;;;;;5068221;28;19913;-92
2023/06/20 11:22:45;;;;;;;;;;;28.20;51.20;;;;;;5062972;28;20009;-93
2023/06/20 11:25:10;;;;;;;;;;;28.10;52.80;;;;;;5061756;28;19908;-92
2023/06/20 11:27:36;;;;;;;;;;;28.30;53.20;;;;;;5062455;28;19948;-92
2023/06/20 11:30:01;;;;;;;;;;;28.40;52.60;;;;;;5065246;28;19980;-92
2023/06/20 11:32:27;;;;;;;;;;;28.50;50.90;;;;;;5064129;28;20397;-92
2023/06/20 11:34:59;;;;;;;;;;;28.40;51.30;;;;;;5063979;28;19909;-92
2023/06/20 11:37:25;;;;;;;;;;;28.30;50.90;;;;;;5063193;28;20421;-92
2023/06/20 11:39:51;;;;;;;;;;;28.30;51.10;;;;;;5065105;28;20001;-93
2023/06/20 11:42:17;;;;;;;;;;;28.30;52.80;;;;;;5083015;28;19924;-92
2023/06/20 11:44:42;;;;;;;;;;;28.40;52.90;;;;;;5068313;28;19912;-94
2023/06/20 11:47:10;;;;;;;;;;;28.40;49.10;;;;;;5073008;28;19896;-93
2023/06/20 11:49:38;;;;;;;;;;;28.50;48.80;;;;;;5059610;28;19913;-94
2023/06/20 11:52:05;;;;;;;;;;;28.50;49.60;;;;;;5077608;28;19942;-93
2023/06/20 11:54:50;;;;;;;;;;;28.60;48.80;;;;;;5071316;28;20039;-93
2023/06/20 11:57:26;;;;;;;;;;;28.80;48.30;;;;;;5054976;28;19916;-93
2023/06/20 11:59:52;;;;;;;;;;;28.90;49.50;;;;;;5055546;28;19913;-89
2023/06/20 12:02:18;;;;;;;;;;;29.00;48.90;;;;;;5057371;28;19908;-89
2023/06/20 12:04:44;;;;;;;;;;;29.00;49.80;;;;;;5053524;28;20367;-92
2023/06/20 12:07:09;;;;;;;;;;;28.80;49.80;;;;;;5036486;28;19970;-91
2023/06/20 12:09:40;;;;;;;;;;;28.60;50.00;;;;;;5035966;28;19916;-92
2023/06/20 12:12:06;;;;;;;;;;;28.40;50.20;;;;;;5038541;28;20351;-92
2023/06/20 12:14:32;;;;;;;;;;;28.40;50.30;;;;;;5059519;28;19913;-93
2023/06/20 12:16:57;;;;;;;;;;;28.60;48.60;;;;;;5062020;28;20015;-91
2023/06/20 12:19:23;;;;;;;;;;;28.80;49.20;;;;;;5049381;28;19939;-91
2023/06/20 12:21:49;;;;;;;;;;;29.00;48.90;;;;;;5046960;28;19916;-91
2023/06/20 12:24:15;;;;;;;;;;;29.10;47.90;;;;;;5051412;28;19962;-91
2023/06/20 12:26:42;;;;;;;;;;;29.10;47.90;;;;;;5046743;28;19912;-91
2023/06/20 12:29:08;;;;;;;;;;;29.20;49.00;;;;;;5052281;28;20315;-88
2023/06/20 12:31:34;;;;;;;;;;;29.00;50.00;;;;;;5073426;28;19908;-92
2023/06/20 12:33:59;;;;;;;;;;;29.00;49.50;;;;;;5050878;28;19920;-91
2023/06/20 12:36:25;;;;;;;;;;;29.10;49.90;;;;;;5039630;28;20287;-89
2023/06/20 12:38:50;;;;;;;;;;;29.30;49.20;;;;;;5072320;28;19923;-89
2023/06/20 12:41:17;;;;;;;;;;;29.30;49.40;;;;;;5055113;28;19930;-89
2023/06/20 12:43:42;;;;;;;;;;;29.50;48.50;;;;;;5054512;28;20422;-88
2023/06/20 12:46:09;;;;;;;;;;;29.20;48.20;;;;;;5052671;28;19916;-89
2023/06/20 12:48:34;;;;;;;;;;;29.20;50.20;;;;;;5070250;28;19912;-88
2023/06/20 12:51:00;;;;;;;;;;;29.40;47.30;;;;;;5067855;28;19913;-89
2023/06/20 12:53:28;;;;;;;;;;;29.40;48.10;;;;;;5050612;28;19924;-89
2023/06/20 12:55:54;;;;;;;;;;;29.60;47.80;;;;;;5081925;28;19912;-88
2023/06/20 12:58:20;;;;;;;;;;;29.80;47.30;;;;;;5069972;28;19912;-89
2023/06/20 13:00:47;;;;;;;;;;;30.00;45.50;;;;;;5073563;28;19908;-89
2023/06/20 13:03:13;;;;;;;;;;;29.80;47.00;;;;;;5057231;28;19913;-89
2023/06/20 13:05:38;;;;;;;;;;;29.60;47.80;;;;;;5069297;28;20361;-90
2023/06/20 13:08:04;;;;;;;;;;;29.60;47.50;;;;;;5051305;28;19924;-89
2023/06/20 13:10:30;;;;;;;;;;;29.70;48.90;;;;;;5050875;28;19960;-86
2023/06/20 13:12:58;;;;;;;;;;;29.80;48.10;;;;;;5051187;28;20314;-87
2023/06/20 13:15:24;;;;;;;;;;;29.80;49.90;;;;;;5068122;28;19916;-87
2023/06/20 13:17:51;;;;;;;;;;;29.80;48.50;;;;;;5063858;28;20243;-89
2023/06/20 13:20:18;;;;;;;;;;;29.80;48.70;;;;;;5048753;28;19983;-88
2023/06/20 13:22:43;;;;;;;;;;;29.60;48.60;;;;;;5045750;28;19912;-87
2023/06/20 13:25:09;;;;;;;;;;;29.50;48.50;;;;;;5044059;28;20389;-87
2023/06/20 13:27:34;;;;;;;;;;;29.50;47.40;;;;;;5042122;28;20040;-87
2023/06/20 13:30:00;;;;;;;;;;;29.50;48.50;;;;;;5062711;28;20294;-88
2023/06/20 13:32:25;;;;;;;;;;;29.50;48.60;;;;;;5041613;28;19916;-88
2023/06/20 13:34:51;;;;;;;;;;;29.60;47.30;;;;;;5046977;28;20381;-87
2023/06/20 13:37:16;;;;;;;;;;;29.80;47.00;;;;;;5042476;28;20511;-88
2023/06/20 13:39:43;;;;;;;;;;;29.90;47.00;;;;;;5052961;28;20597;-88
2023/06/20 13:42:09;;;;;;;;;;;30.10;47.00;;;;;;5064424;28;19923;-88
2023/06/20 13:44:34;;;;;;;;;;;30.30;46.20;;;;;;5046035;28;19916;-88
2023/06/20 13:47:00;;;;;;;;;;;30.40;46.20;;;;;;5050291;28;20006;-88
2023/06/20 13:49:25;;;;;;;;;;;30.40;45.90;;;;;;5062509;28;20026;-87
2023/06/20 13:51:51;;;;;;;;;;;30.30;46.00;;;;;;5044884;28;19919;-87
2023/06/20 13:54:17;;;;;;;;;;;30.30;46.70;;;;;;5051487;28;19915;-87
2023/06/20 13:56:42;;;;;;;;;;;30.40;47.40;;;;;;5055430;28;19958;-87
2023/06/20 13:59:08;;;;;;;;;;;30.20;46.30;;;;;;5049141;28;19924;-88
2023/06/20 14:01:34;;;;;;;;;;;30.00;47.40;;;;;;5044625;28;19970;-88
2023/06/20 14:04:01;;;;;;;;;;;30.00;48.70;;;;;;5044422;28;20354;-88
2023/06/20 14:06:27;;;;;;;;;;;29.80;48.30;;;;;;5044788;28;19912;-88
2023/06/20 14:08:52;;;;;;;;;;;29.90;48.60;;;;;;5051072;28;20382;-88
2023/06/20 14:11:18;;;;;;;;;;;29.90;48.80;;;;;;5050472;28;19920;-88
2023/06/20 14:13:43;;;;;;;;;;;29.90;48.50;;;;;;5052657;28;19943;-88